Terminal Aerodrome Forecast
Issued by NWS

Home | Current Version | Previous Version | Text Only | Print | Product List | Glossary On
Versions: 1 2 3 4 5 6 7 8 9 10 11 12 13 14 15 16 17 18
000
FTUS43 KDTX 300529
TAFPTK
TAF
KPTK 300529Z 3006/0106 05013KT P6SM OVC040
      TEMPO 3006/3008 2SM TSRA OVC030CB
     FM300800 06013G20KT 6SM -SHRA OVC040
     FM301000 08013KT 4SM -SHRA BR OVC025
     FM301300 10010KT 2SM BR OVC008
     FM010100 06007KT 2SM SHRA BR OVC008=

USA.gov is the U.S. government's official web portal to all federal, state and local government web resources and services.